Terminal Aerodrome Forecast
Issued by NWS

Home | Current Version | Previous Version | Text Only | Print | Product List | Glossary On
Versions: 1 2 3 4 5 6 7 8 9 10 11 12 13 14 15 16 17 18 19 20 21 22 23
000
FTUS41 KPBZ 180530
TAFAGC
TAF
KAGC 180530Z 1806/1906 16005KT P6SM OVC200 WS020/21040KT
     FM181000 19005KT P6SM -RA OVC050 WS020/21040KT
     FM181200 18007KT 4SM -RA BR OVC035 WS020/22040KT
     FM181400 19012KT 3SM -RA OVC015
     FM181900 20012G22KT P6SM -SHRA OVC035
     FM190100 20015G25KT 3SM SHRA OVC035
     FM190400 27020G30KT 5SM -SHRA OVC015=

USA.gov is the U.S. government's official web portal to all federal, state and local government web resources and services.